Time;durP1;ratioP1;P1;durP2;ratioP2;P2;SDS_P1;SDS_P2;PMS_P1;PMS_P2;Temp;Humidity;BMP_temperature;BMP_pressure;BME280_temperature;BME280_humidity;BME280_pressure;Samples;Min_cycle;Max_cycle;Signal;HPM_P1;HPM_P2
2022/11/26 00:00:42;;;;;;;;;;;;;;;10.92;60.59;101550.63;4977044;28;7058;-75
2022/11/26 00:03:12;;;;;;;;;;;;;;;10.93;60.55;101557.53;4963293;28;7396;-75
2022/11/26 00:05:44;;;;;;;;;;;;;;;10.92;60.52;101560.91;4977530;28;6808;-75
2022/11/26 00:08:21;;;;;;;;;;;;;;;10.91;60.38;101556.56;4976909;28;8012;-75
2022/11/26 00:10:51;;;;;;;;;;;;;;;10.88;60.48;101564.03;4983050;28;6826;-75
2022/11/26 00:13:22;;;;;;;;;;;;;;;10.86;60.39;101563.06;4976606;28;6808;-75
2022/11/26 00:15:48;;;;;;;;;;;;;;;10.84;60.89;101564.63;4982155;28;7201;-75
2022/11/26 00:18:16;;;;;;;;;;;;;;;10.82;59.97;101571.34;4977564;28;6808;-75
2022/11/26 00:20:43;;;;;;;;;;;;;;;10.81;60.58;101577.22;4971781;28;6879;-75
2022/11/26 00:23:23;;;;;;;;;;;;;;;10.79;60.71;101572.03;4974500;28;6996;-76
2022/11/26 00:26:00;;;;;;;;;;;;;;;10.78;60.93;101579.59;4977662;28;6800;-75
2022/11/26 00:28:34;;;;;;;;;;;;;;;10.78;60.61;101587.31;4978349;28;6835;-75
2022/11/26 00:31:11;;;;;;;;;;;;;;;10.76;60.84;101596.56;4991027;28;6993;-76
2022/11/26 00:33:37;;;;;;;;;;;;;;;10.76;60.69;101599.13;4978868;28;7247;-75
2022/11/26 00:36:28;;;;;;;;;;;;;;;10.73;60.57;101602.38;4979768;28;6772;-75
2022/11/26 00:39:03;;;;;;;;;;;;;;;10.72;60.66;101597.13;4978513;28;7250;-75
2022/11/26 00:41:39;;;;;;;;;;;;;;;10.71;60.59;101603.97;4976741;28;6800;-75
2022/11/26 00:44:34;;;;;;;;;;;;;;;10.70;60.78;101613.31;4977391;28;7330;-75
2022/11/26 00:47:00;;;;;;;;;;;;;;;10.72;60.86;101610.88;4973870;28;8154;-75
2022/11/26 00:49:27;;;;;;;;;;;;;;;10.73;60.66;101611.78;4977758;28;7163;-75
2022/11/26 00:51:53;;;;;;;;;;;;;;;10.72;60.86;101612.53;4997494;28;6986;-75
2022/11/26 00:54:22;;;;;;;;;;;;;;;10.72;61.02;101615.09;4977653;28;6959;-75
2022/11/26 00:56:49;;;;;;;;;;;;;;;10.72;61.18;101612.53;4963892;28;8180;-75
2022/11/26 00:59:21;;;;;;;;;;;;;;;10.74;60.97;101618.66;4977274;28;6828;-75
2022/11/26 01:01:47;;;;;;;;;;;;;;;10.74;61.13;101611.84;4962335;28;7314;-76
2022/11/26 01:04:13;;;;;;;;;;;;;;;10.74;61.58;101609.28;4982043;28;7231;-75
2022/11/26 01:06:42;;;;;;;;;;;;;;;10.74;60.83;101609.28;4978484;28;8158;-75
2022/11/26 01:09:20;;;;;;;;;;;;;;;10.74;61.10;101619.53;4961439;28;7052;-75
2022/11/26 01:11:46;;;;;;;;;;;;;;;10.73;60.91;101615.19;4974621;28;6827;-75
2022/11/26 01:14:16;;;;;;;;;;;;;;;10.72;61.21;101615.09;4982507;28;6788;-75
2022/11/26 01:16:44;;;;;;;;;;;;;;;10.72;61.34;101620.22;4963680;28;7415;-76
2022/11/26 01:19:15;;;;;;;;;;;;;;;10.73;60.90;101622.03;4981062;28;7318;-76
2022/11/26 01:21:41;;;;;;;;;;;;;;;10.72;61.09;101620.22;4982004;28;7849;-76
2022/11/26 01:24:07;;;;;;;;;;;;;;;10.72;61.13;101626.25;4986279;28;6889;-76
2022/11/26 01:26:39;;;;;;;;;;;;;;;10.72;60.89;101625.34;4978685;28;6768;-76
2022/11/26 01:29:05;;;;;;;;;;;;;;;10.72;61.12;101625.34;4980337;28;6975;-75
2022/11/26 01:31:30;;;;;;;;;;;;;;;10.72;61.23;101627.91;4976188;28;6999;-75
2022/11/26 01:33:57;;;;;;;;;;;;;;;10.69;60.73;101626.06;4972922;28;6784;-75
2022/11/26 01:36:35;;;;;;;;;;;;;;;10.67;61.01;101633.63;4966246;28;6976;-75
2022/11/26 01:39:11;;;;;;;;;;;;;;;10.64;61.20;101633.44;4981153;28;6859;-75
2022/11/26 01:42:13;;;;;;;;;;;;;;;10.62;61.03;101632.44;4975757;28;8315;-75
2022/11/26 01:44:39;;;;;;;;;;;;;;;10.57;61.38;101633.81;4979047;28;7247;-75
2022/11/26 01:47:25;;;;;;;;;;;;;;;10.58;60.79;101634.69;4980138;28;7287;-75
2022/11/26 01:50:32;;;;;;;;;;;;;;;10.54;61.39;101629.34;4975406;28;7238;-75
2022/11/26 01:53:09;;;;;;;;;;;;;;;10.49;61.23;101627.25;4980419;28;6946;-75
2022/11/26 01:56:00;;;;;;;;;;;;;;;10.46;61.24;101634.75;4979150;28;6816;-75
2022/11/26 01:58:41;;;;;;;;;;;;;;;10.41;60.96;101622.50;4963058;28;7162;-75
2022/11/26 02:01:07;;;;;;;;;;;;;;;10.39;60.35;101613.78;4983471;28;6980;-75
2022/11/26 02:04:15;;;;;;;;;;;;;;;10.35;60.62;101616.94;4987416;28;6978;-75
2022/11/26 02:06:45;;;;;;;;;;;;;;;10.30;60.34;101609.72;4971752;28;7011;-75
2022/11/26 02:09:12;;;;;;;;;;;;;;;10.26;60.08;101614.59;4986757;28;7027;-74
2022/11/26 02:11:37;;;;;;;;;;;;;;;10.21;60.75;101613.44;4984525;28;6800;-75
2022/11/26 02:14:16;;;;;;;;;;;;;;;10.17;60.41;101613.09;4980105;28;6832;-75
2022/11/26 02:16:57;;;;;;;;;;;;;;;10.12;60.94;101616.22;4992985;28;6934;-75
2022/11/26 02:19:57;;;;;;;;;;;;;;;10.09;60.92;101613.47;4983560;28;6998;-75
2022/11/26 02:22:28;;;;;;;;;;;;;;;10.07;60.81;101612.47;4978479;28;6954;-75
2022/11/26 02:25:08;;;;;;;;;;;;;;;10.09;61.15;101616.00;4983597;28;7030;-74
2022/11/26 02:27:59;;;;;;;;;;;;;;;10.10;60.90;101616.91;4988367;28;6796;-75
2022/11/26 02:30:29;;;;;;;;;;;;;;;10.10;61.54;101625.47;4979600;28;6804;-74
2022/11/26 02:33:08;;;;;;;;;;;;;;;10.12;61.25;101620.47;4978830;28;7016;-74
2022/11/26 02:35:45;;;;;;;;;;;;;;;10.16;61.83;101629.25;4978393;28;6807;-75
2022/11/26 02:38:29;;;;;;;;;;;;;;;10.17;61.51;101626.78;4974613;28;6820;-74
2022/11/26 02:40:55;;;;;;;;;;;;;;;10.17;60.92;101629.34;4977394;28;6808;-75
2022/11/26 02:43:25;;;;;;;;;;;;;;;10.15;60.41;101628.38;4978790;28;6943;-75
2022/11/26 02:46:00;;;;;;;;;;;;;;;10.13;60.69;101624.81;4982049;28;6996;-75
2022/11/26 02:48:35;;;;;;;;;;;;;;;10.11;61.25;101628.94;4993876;28;6859;-75
2022/11/26 02:51:11;;;;;;;;;;;;;;;10.07;60.78;101632.97;4956713;28;7056;-75
2022/11/26 02:53:39;;;;;;;;;;;;;;;10.04;61.02;101637.84;4981941;28;7002;-75
2022/11/26 02:56:16;;;;;;;;;;;;;;;10.00;60.94;101633.31;4977867;28;7196;-75
2022/11/26 02:58:43;;;;;;;;;;;;;;;9.99;60.56;101629.88;4978470;28;6788;-75
2022/11/26 03:01:27;;;;;;;;;;;;;;;9.97;61.32;101621.16;4998368;28;7020;-75
2022/11/26 03:03:59;;;;;;;;;;;;;;;9.96;61.09;101632.19;4980458;28;7007;-75
2022/11/26 03:06:29;;;;;;;;;;;;;;;9.94;61.28;101638.88;4979346;28;6807;-75
2022/11/26 03:08:55;;;;;;;;;;;;;;;9.93;61.56;101636.22;4984605;28;6784;-76
2022/11/26 03:11:20;;;;;;;;;;;;;;;9.93;61.19;101638.78;4980738;28;7980;-76
2022/11/26 03:13:48;;;;;;;;;;;;;;;9.92;61.13;101637.00;4979774;28;6987;-76
2022/11/26 03:16:15;;;;;;;;;;;;;;;9.92;61.08;101637.00;4975748;28;6988;-76
2022/11/26 03:18:40;;;;;;;;;;;;;;;9.89;61.08;101634.22;4982130;28;6979;-76
2022/11/26 03:21:06;;;;;;;;;;;;;;;9.89;60.65;101652.16;4984463;28;8560;-76
2022/11/26 03:23:33;;;;;;;;;;;;;;;9.88;61.11;101656.38;4966022;28;8401;-77
2022/11/26 03:25:59;;;;;;;;;;;;;;;9.86;61.40;101657.94;4965782;28;8494;-77
2022/11/26 03:28:24;;;;;;;;;;;;;;;9.87;60.63;101659.72;4978863;28;6795;-77
2022/11/26 03:30:51;;;;;;;;;;;;;;;9.85;60.67;101661.28;4968517;28;6956;-77
2022/11/26 03:33:17;;;;;;;;;;;;;;;9.85;61.68;101662.19;4968508;28;6964;-77
2022/11/26 03:35:43;;;;;;;;;;;;;;;9.82;61.26;101679.00;4982476;28;7186;-75
2022/11/26 03:38:09;;;;;;;;;;;;;;;9.81;61.39;101675.53;4966440;28;7178;-76
2022/11/26 03:40:35;;;;;;;;;;;;;;;9.80;61.08;101681.44;4967631;28;8377;-76
2022/11/26 03:43:01;;;;;;;;;;;;;;;9.78;60.35;101675.31;4978780;28;6938;-75
2022/11/26 03:45:27;;;;;;;;;;;;;;;9.76;60.83;101674.34;4982646;28;6776;-75
2022/11/26 03:47:52;;;;;;;;;;;;;;;9.76;61.00;101683.66;4974581;28;7006;-75
2022/11/26 03:50:18;;;;;;;;;;;;;;;9.75;61.61;101684.47;4976243;28;7183;-75
2022/11/26 03:52:44;;;;;;;;;;;;;;;9.75;61.33;101689.56;4978798;28;8522;-75
2022/11/26 03:55:10;;;;;;;;;;;;;;;9.73;61.75;101692.00;4975490;28;8310;-74
2022/11/26 03:57:36;;;;;;;;;;;;;;;9.71;61.58;101691.03;4993312;28;6819;-74
2022/11/26 04:00:03;;;;;;;;;;;;;;;9.70;61.48;101694.38;4980965;28;6994;-74
2022/11/26 04:02:28;;;;;;;;;;;;;;;9.69;60.91;101692.59;4962802;28;7936;-74
2022/11/26 04:04:54;;;;;;;;;;;;;;;9.66;61.49;101698.38;4976136;28;6942;-74
2022/11/26 04:07:20;;;;;;;;;;;;;;;9.64;60.54;101699.03;4977835;28;6859;-75
2022/11/26 04:09:45;;;;;;;;;;;;;;;9.60;60.98;101700.47;4974235;28;7168;-76
2022/11/26 04:12:11;;;;;;;;;;;;;;;9.57;60.91;101711.41;4962586;28;6957;-77
2022/11/26 04:14:36;;;;;;;;;;;;;;;9.55;60.71;101712.06;4992346;28;6768;-76
2022/11/26 04:17:02;;;;;;;;;;;;;;;9.52;61.43;101710.16;4983636;28;7122;-75
2022/11/26 04:19:29;;;;;;;;;;;;;;;9.51;61.31;101707.47;4975185;28;6944;-76
2022/11/26 04:21:55;;;;;;;;;;;;;;;9.51;61.58;101721.19;4984745;28;6952;-76
2022/11/26 04:24:20;;;;;;;;;;;;;;;9.48;61.54;101712.38;4982974;28;6957;-73
2022/11/26 04:26:46;;;;;;;;;;;;;;;9.50;60.83;101715.94;4976236;28;8069;-73
2022/11/26 04:29:11;;;;;;;;;;;;;;;9.48;61.10;101717.50;4981602;28;7229;-74
2022/11/26 04:31:37;;;;;;;;;;;;;;;9.50;60.81;101729.63;4977795;28;7000;-74
2022/11/26 04:34:03;;;;;;;;;;;;;;;9.50;61.17;101724.53;4996866;28;7131;-77
2022/11/26 04:36:28;;;;;;;;;;;;;;;9.51;61.23;101733.06;4981878;28;6792;-76
2022/11/26 04:38:54;;;;;;;;;;;;;;;9.50;60.98;101729.63;4977593;28;6788;-76
2022/11/26 04:41:19;;;;;;;;;;;;;;;9.49;61.13;101729.50;4974552;28;6775;-76
2022/11/26 04:43:45;;;;;;;;;;;;;;;9.49;61.38;101735.53;4997449;28;6946;-76
2022/11/26 04:46:11;;;;;;;;;;;;;;;9.52;61.44;101732.31;4978258;28;6792;-76
2022/11/26 04:48:36;;;;;;;;;;;;;;;9.52;61.61;101738.31;4976724;28;6772;-77
2022/11/26 04:51:02;;;;;;;;;;;;;;;9.53;61.02;101737.53;4975285;28;6780;-77
2022/11/26 04:53:28;;;;;;;;;;;;;;;9.55;61.55;101746.22;4964526;28;6954;-76
2022/11/26 04:55:54;;;;;;;;;;;;;;;9.56;61.23;101747.13;4959381;28;6995;-75
2022/11/26 04:58:20;;;;;;;;;;;;;;;9.55;61.62;101743.66;4982498;28;6780;-76
2022/11/26 05:00:47;;;;;;;;;;;;;;;9.56;61.79;101740.34;4976017;28;7015;-76
2022/11/26 05:03:13;;;;;;;;;;;;;;;9.56;61.96;101750.59;4972930;28;6947;-75
2022/11/26 05:05:39;;;;;;;;;;;;;;;9.56;61.12;101753.13;4973427;28;7523;-75
2022/11/26 05:08:05;;;;;;;;;;;;;;;9.55;61.55;101748.78;4984255;28;8561;-75
2022/11/26 05:10:30;;;;;;;;;;;;;;;9.55;61.18;101763.25;4976504;28;6799;-76
2022/11/26 05:12:56;;;;;;;;;;;;;;;9.54;60.88;101758.91;4976362;28;6919;-76
2022/11/26 05:15:22;;;;;;;;;;;;;;;9.51;61.81;101748.44;4977763;28;7186;-75
2022/11/26 05:17:47;;;;;;;;;;;;;;;9.51;60.98;101753.53;4974721;28;7857;-75
2022/11/26 05:20:13;;;;;;;;;;;;;;;9.49;61.64;101757.66;4974779;28;6791;-75
2022/11/26 05:22:40;;;;;;;;;;;;;;;9.47;61.17;101759.22;4982017;28;7698;-75
2022/11/26 05:25:06;;;;;;;;;;;;;;;9.43;61.43;101758.09;4995118;28;6951;-75
2022/11/26 05:27:32;;;;;;;;;;;;;;;9.40;60.96;101763.00;4976139;28;6790;-75
2022/11/26 05:29:57;;;;;;;;;;;;;;;9.37;60.69;101755.13;4968931;28;6792;-75
2022/11/26 05:32:23;;;;;;;;;;;;;;;9.35;61.63;101754.06;4973871;28;6795;-75
2022/11/26 05:34:49;;;;;;;;;;;;;;;9.31;60.34;101752.94;4984376;28;6966;-76
2022/11/26 05:37:14;;;;;;;;;;;;;;;9.27;60.72;101756.06;4990491;28;6918;-75
2022/11/26 05:39:40;;;;;;;;;;;;;;;9.25;61.47;101763.63;4972351;28;6975;-75
2022/11/26 05:42:06;;;;;;;;;;;;;;;9.23;61.31;101762.63;4968899;28;7007;-75
2022/11/26 05:44:32;;;;;;;;;;;;;;;9.22;61.06;101757.38;4973602;28;6792;-76
2022/11/26 05:46:57;;;;;;;;;;;;;;;9.21;61.13;101760.72;4972454;28;6772;-76
2022/11/26 05:49:23;;;;;;;;;;;;;;;9.20;60.98;101757.28;4969101;28;6856;-77
2022/11/26 05:51:49;;;;;;;;;;;;;;;9.21;61.65;101766.75;4969132;28;6944;-76
2022/11/26 05:54:15;;;;;;;;;;;;;;;9.20;61.15;101764.97;4965007;28;7131;-76
2022/11/26 05:56:42;;;;;;;;;;;;;;;9.21;61.39;101769.31;4968208;28;6973;-76
2022/11/26 05:59:08;;;;;;;;;;;;;;;9.22;61.80;101771.09;4975205;28;6804;-76
2022/11/26 06:01:34;;;;;;;;;;;;;;;9.21;61.03;101770.94;4970754;28;6820;-76
2022/11/26 06:04:00;;;;;;;;;;;;;;;9.22;60.90;101765.97;4971227;28;6996;-76
2022/11/26 06:06:26;;;;;;;;;;;;;;;9.22;61.27;101768.53;4974876;28;6871;-77
2022/11/26 06:08:52;;;;;;;;;;;;;;;9.26;61.33;101773.09;4973615;28;6784;-76
2022/11/26 06:11:17;;;;;;;;;;;;;;;9.28;62.26;101773.22;4968523;28;6764;-76
2022/11/26 06:13:43;;;;;;;;;;;;;;;9.29;61.27;101775.88;4977527;28;6796;-76
2022/11/26 06:16:09;;;;;;;;;;;;;;;9.31;61.96;101776.88;4975669;28;6787;-76
2022/11/26 06:18:38;;;;;;;;;;;;;;;9.34;61.67;101777.88;4966271;28;6976;-76
2022/11/26 06:21:06;;;;;;;;;;;;;;;9.34;62.03;101788.13;4983171;28;6792;-76
2022/11/26 06:23:33;;;;;;;;;;;;;;;9.34;61.15;101793.25;4976620;28;9569;-76
2022/11/26 06:26:00;;;;;;;;;;;;;;;9.31;61.21;101781.09;4981821;28;7018;-76
2022/11/26 06:28:25;;;;;;;;;;;;;;;9.31;61.45;101787.13;4973494;28;6935;-76
2022/11/26 06:30:51;;;;;;;;;;;;;;;9.27;60.68;101790.25;4970632;28;8540;-76
2022/11/26 06:33:17;;;;;;;;;;;;;;;9.27;60.86;101791.91;4973566;28;6780;-76
2022/11/26 06:35:42;;;;;;;;;;;;;;;9.24;61.31;101796.78;4987719;28;6772;-76
2022/11/26 06:38:08;;;;;;;;;;;;;;;9.26;61.25;101798.66;4968621;28;6844;-76
2022/11/26 06:40:34;;;;;;;;;;;;;;;9.26;60.96;101800.34;4974803;28;8036;-76
2022/11/26 06:43:00;;;;;;;;;;;;;;;9.26;62.10;101800.34;4976557;28;6772;-76
2022/11/26 06:45:25;;;;;;;;;;;;;;;9.26;61.17;101808.91;4973810;28;7605;-76
2022/11/26 06:47:51;;;;;;;;;;;;;;;9.27;61.08;101808.16;4966792;28;6772;-76
2022/11/26 06:50:21;;;;;;;;;;;;;;;9.30;62.33;101823.72;4975883;28;6799;-76
2022/11/26 06:52:52;;;;;;;;;;;;;;;9.33;61.83;101820.50;4975973;28;6981;-76
2022/11/26 06:55:18;;;;;;;;;;;;;;;9.37;62.15;101819.97;4976519;28;8640;-76
2022/11/26 06:57:47;;;;;;;;;;;;;;;9.43;62.35;101827.19;4975537;28;7107;-76
2022/11/26 07:00:13;;;;;;;;;;;;;;;9.50;62.14;101832.00;4973381;28;6808;-76
2022/11/26 07:02:39;;;;;;;;;;;;;;;9.56;62.33;101821.34;4979403;28;6941;-76
2022/11/26 07:05:04;;;;;;;;;;;;;;;9.61;62.58;101822.59;4984970;28;6925;-76
2022/11/26 07:07:30;;;;;;;;;;;;;;;9.64;62.73;101817.69;4976360;28;6776;-76
2022/11/26 07:09:55;;;;;;;;;;;;;;;9.67;61.88;101829.84;4978170;28;6991;-76
2022/11/26 07:12:21;;;;;;;;;;;;;;;9.71;62.27;101824.16;4969295;28;7858;-76
2022/11/26 07:14:47;;;;;;;;;;;;;;;9.75;62.61;101825.28;4976846;28;6775;-76
2022/11/26 07:17:12;;;;;;;;;;;;;;;9.76;62.48;101825.41;4972555;28;6917;-76
2022/11/26 07:19:38;;;;;;;;;;;;;;;9.79;62.09;101825.63;4975553;28;7893;-76
2022/11/26 07:22:03;;;;;;;;;;;;;;;9.81;61.78;101826.63;4972189;28;6823;-76
2022/11/26 07:24:29;;;;;;;;;;;;;;;9.82;62.38;101825.84;4973485;28;7221;-76
2022/11/26 07:26:55;;;;;;;;;;;;;;;9.83;61.36;101824.19;4977639;28;6800;-76
2022/11/26 07:29:20;;;;;;;;;;;;;;;9.86;61.94;101827.88;4964497;28;6995;-75
2022/11/26 07:31:46;;;;;;;;;;;;;;;9.89;61.90;101831.41;4968930;28;8214;-76
2022/11/26 07:34:12;;;;;;;;;;;;;;;9.94;62.17;101836.09;4968172;28;6764;-76
2022/11/26 07:36:41;;;;;;;;;;;;;;;9.98;62.24;101837.22;4951365;28;7001;-76
2022/11/26 07:39:09;;;;;;;;;;;;;;;10.03;62.18;101835.88;4969386;28;6804;-77
2022/11/26 07:41:35;;;;;;;;;;;;;;;10.09;62.46;101838.91;4988008;28;7205;-76
2022/11/26 07:44:00;;;;;;;;;;;;;;;10.12;62.82;101844.22;4972914;28;8293;-76
2022/11/26 07:46:26;;;;;;;;;;;;;;;10.15;62.43;101843.56;4953695;28;11988;-76
2022/11/26 07:48:53;;;;;;;;;;;;;;;10.16;61.73;101837.66;4972540;28;6780;-76
2022/11/26 07:51:31;;;;;;;;;;;;;;;10.19;61.64;101831.88;4963749;28;6991;-76
2022/11/26 07:54:01;;;;;;;;;;;;;;;10.20;61.62;101833.66;4968256;28;7414;-76
2022/11/26 07:56:27;;;;;;;;;;;;;;;10.24;62.36;101838.25;4970481;28;6824;-76
2022/11/26 07:58:53;;;;;;;;;;;;;;;10.27;62.17;101841.00;4975099;28;8359;-76
2022/11/26 08:01:23;;;;;;;;;;;;;;;10.30;62.55;101851.47;4973858;28;6969;-76
2022/11/26 08:03:50;;;;;;;;;;;;;;;10.35;61.95;101850.16;4968231;28;6803;-76
2022/11/26 08:06:24;;;;;;;;;;;;;;;10.40;62.80;101851.34;4959626;28;6855;-76
2022/11/26 08:08:51;;;;;;;;;;;;;;;10.45;62.43;101850.84;4970876;28;9299;-76
2022/11/26 08:11:17;;;;;;;;;;;;;;;10.51;62.57;101851.25;4964220;28;6972;-76
2022/11/26 08:13:44;;;;;;;;;;;;;;;10.55;62.16;101846.47;4980397;28;8031;-76
2022/11/26 08:16:11;;;;;;;;;;;;;;;10.60;62.29;101848.50;4976010;28;6796;-76
2022/11/26 08:18:36;;;;;;;;;;;;;;;10.64;62.43;101847.91;4977177;28;6876;-77
2022/11/26 08:21:02;;;;;;;;;;;;;;;10.67;62.13;101845.56;4976184;28;7182;-76
2022/11/26 08:23:30;;;;;;;;;;;;;;;10.70;62.06;101848.34;4971752;28;7404;-76
2022/11/26 08:25:56;;;;;;;;;;;;;;;10.73;61.84;101856.25;4975598;28;8463;-76
2022/11/26 08:28:22;;;;;;;;;;;;;;;10.75;61.99;101852.13;4976484;28;6856;-76
2022/11/26 08:30:48;;;;;;;;;;;;;;;10.77;62.19;101853.13;4978735;28;10896;-76
2022/11/26 08:33:14;;;;;;;;;;;;;;;10.81;61.75;101856.78;4972282;28;8126;-76
2022/11/26 08:35:40;;;;;;;;;;;;;;;10.83;61.92;101855.25;4976831;28;6955;-76
2022/11/26 08:38:06;;;;;;;;;;;;;;;10.86;61.85;101860.56;4959917;28;8328;-76
2022/11/26 08:40:32;;;;;;;;;;;;;;;10.88;61.75;101864.13;4985235;28;10234;-76
2022/11/26 08:42:57;;;;;;;;;;;;;;;10.92;62.11;101861.03;4969688;28;6959;-76
2022/11/26 08:45:23;;;;;;;;;;;;;;;10.94;61.72;101850.84;4961234;28;6954;-76
2022/11/26 08:47:49;;;;;;;;;;;;;;;11.01;62.16;101862.41;4972788;28;7186;-76
2022/11/26 08:50:15;;;;;;;;;;;;;;;11.05;62.12;101861.88;4977029;28;6760;-76
2022/11/26 08:52:42;;;;;;;;;;;;;;;11.12;62.14;101866.66;4972047;28;6848;-76
2022/11/26 08:55:08;;;;;;;;;;;;;;;11.23;62.22;101875.06;4971250;28;6792;-76
2022/11/26 08:57:33;;;;;;;;;;;;;;;11.32;62.20;101869.69;4973692;28;6784;-75
2022/11/26 08:59:59;;;;;;;;;;;;;;;11.45;62.17;101879.13;4970106;28;6799;-76
2022/11/26 09:02:25;;;;;;;;;;;;;;;11.60;62.78;101880.16;4965340;28;6794;-76
2022/11/26 09:04:50;;;;;;;;;;;;;;;11.76;62.68;101876.06;4971020;28;6812;-76
2022/11/26 09:07:16;;;;;;;;;;;;;;;11.97;62.61;101875.69;4980131;28;6784;-76
2022/11/26 09:09:41;;;;;;;;;;;;;;;12.20;62.88;101872.09;4976436;28;6788;-76
2022/11/26 09:12:07;;;;;;;;;;;;;;;12.39;62.24;101866.44;4974667;28;6823;-76
2022/11/26 09:14:39;;;;;;;;;;;;;;;12.61;62.75;101865.25;4978372;28;6784;-76
2022/11/26 09:17:06;;;;;;;;;;;;;;;12.77;61.68;101873.13;4961751;28;7032;-76
2022/11/26 09:19:32;;;;;;;;;;;;;;;12.91;61.27;101868.84;4969204;28;6819;-76
2022/11/26 09:21:59;;;;;;;;;;;;;;;13.04;61.10;101869.63;4968642;28;6972;-76
2022/11/26 09:24:25;;;;;;;;;;;;;;;13.12;60.96;101873.50;4973537;28;6807;-76
2022/11/26 09:26:51;;;;;;;;;;;;;;;13.23;60.97;101875.84;4976316;28;7046;-76
2022/11/26 09:29:22;;;;;;;;;;;;;;;13.32;61.22;101879.00;4977136;28;8507;-76
2022/11/26 09:31:48;;;;;;;;;;;;;;;13.40;61.07;101879.47;4977718;28;6809;-75
2022/11/26 09:34:15;;;;;;;;;;;;;;;13.47;60.61;101882.53;4964411;28;9591;-76
2022/11/26 09:36:41;;;;;;;;;;;;;;;13.55;60.97;101887.25;4997935;28;6784;-75
2022/11/26 09:39:06;;;;;;;;;;;;;;;13.59;59.73;101891.78;4976577;28;6788;-76
2022/11/26 09:42:04;;;;;;;;;;;;;;;13.64;60.07;101892.97;4977434;28;6860;-75
2022/11/26 09:45:01;;;;;;;;;;;;;;;13.66;59.78;101888.78;4975707;28;7444;-76
2022/11/26 09:47:40;;;;;;;;;;;;;;;13.69;59.69;101885.50;4977306;28;6820;-76
2022/11/26 09:50:30;;;;;;;;;;;;;;;13.72;59.04;101886.56;4948028;28;8167;-76
2022/11/26 09:53:18;;;;;;;;;;;;;;;13.76;59.41;101882.47;4953903;28;7070;-76
2022/11/26 09:55:50;;;;;;;;;;;;;;;13.81;60.04;101882.72;4952884;28;7020;-76
2022/11/26 09:58:23;;;;;;;;;;;;;;;13.89;59.99;101881.50;4964578;28;7244;-76
2022/11/26 10:00:52;;;;;;;;;;;;;;;13.96;59.33;101883.63;4970638;28;8508;-76
2022/11/26 10:03:22;;;;;;;;;;;;;;;14.01;58.89;101889.97;4958256;28;6975;-76
2022/11/26 10:05:55;;;;;;;;;;;;;;;14.08;58.85;101898.03;4966387;28;10457;-76
2022/11/26 10:08:57;;;;;;;;;;;;;;;14.14;58.82;101899.25;4965303;28;6796;-76
2022/11/26 10:11:48;;;;;;;;;;;;;;;14.20;59.39;101892.69;4977276;28;6795;-76
2022/11/26 10:14:44;;;;;;;;;;;;;;;14.26;59.65;101899.09;4975336;28;11423;-76
2022/11/26 10:17:35;;;;;;;;;;;;;;;14.36;59.17;101884.13;4967039;28;8982;-76
2022/11/26 10:20:50;;;;;;;;;;;;;;;14.49;59.28;101883.13;4991244;28;7152;-76
2022/11/26 10:23:36;;;;;;;;;;;;;;;14.62;59.08;101882.13;4964031;28;6820;-76
2022/11/26 10:26:18;;;;;;;;;;;;;;;14.71;58.78;101873.19;4960339;28;7077;-76
2022/11/26 10:28:49;;;;;;;;;;;;;;;14.78;58.13;101873.56;4972700;28;6812;-76
2022/11/26 10:31:26;;;;;;;;;;;;;;;14.82;57.60;101872.91;4970303;28;6804;-75
2022/11/26 10:34:01;;;;;;;;;;;;;;;14.86;58.06;101877.44;4970989;28;7222;-75
2022/11/26 10:36:43;;;;;;;;;;;;;;;14.90;57.32;101883.66;4968858;28;6795;-75
2022/11/26 10:39:19;;;;;;;;;;;;;;;14.92;57.77;101882.03;4969493;28;6884;-75
2022/11/26 10:41:46;;;;;;;;;;;;;;;14.94;57.36;101883.00;4968580;28;6820;-75
2022/11/26 10:44:38;;;;;;;;;;;;;;;14.93;57.32;101889.88;4965690;28;6792;-75
2022/11/26 10:47:30;;;;;;;;;;;;;;;14.92;57.23;101893.28;4967234;28;8715;-75
2022/11/26 10:50:01;;;;;;;;;;;;;;;14.90;56.80;101888.81;4969510;28;7151;-75
2022/11/26 10:52:32;;;;;;;;;;;;;;;14.90;56.66;101889.69;4964574;28;7225;-75
2022/11/26 10:55:22;;;;;;;;;;;;;;;14.93;57.15;101897.63;4955953;28;7063;-75
2022/11/26 10:57:57;;;;;;;;;;;;;;;14.97;57.09;101891.81;4960560;28;8321;-75
2022/11/26 11:00:58;;;;;;;;;;;;;;;15.02;57.10;101884.31;4969412;28;6804;-75
2022/11/26 11:03:45;;;;;;;;;;;;;;;15.09;56.85;101883.84;4971355;28;6999;-75
2022/11/26 11:06:26;;;;;;;;;;;;;;;15.17;57.08;101883.38;4967478;28;8566;-75
2022/11/26 11:08:53;;;;;;;;;;;;;;;15.25;56.31;101885.53;4980493;28;6965;-75
2022/11/26 11:11:29;;;;;;;;;;;;;;;15.30;56.21;101890.94;4982680;28;6796;-75
2022/11/26 11:13:56;;;;;;;;;;;;;;;15.32;55.88;101879.00;4979232;28;6820;-75
2022/11/26 11:16:42;;;;;;;;;;;;;;;15.36;56.33;101874.88;4983225;28;6788;-75
2022/11/26 11:19:25;;;;;;;;;;;;;;;15.35;56.05;101880.84;4977414;28;7043;-75
2022/11/26 11:21:51;;;;;;;;;;;;;;;15.34;55.98;101877.38;4983365;28;6990;-76
2022/11/26 11:24:28;;;;;;;;;;;;;;;15.38;55.39;101874.16;5001327;28;7015;-75
2022/11/26 11:27:01;;;;;;;;;;;;;;;15.39;55.49;101873.34;4979181;28;6796;-76
2022/11/26 11:29:37;;;;;;;;;;;;;;;15.41;55.50;101869.13;4984281;28;7369;-76
2022/11/26 11:32:25;;;;;;;;;;;;;;;15.41;55.40;101876.88;4982766;28;7406;-76
2022/11/26 11:34:51;;;;;;;;;;;;;;;15.40;55.34;101862.19;4977807;28;6812;-75
2022/11/26 11:37:22;;;;;;;;;;;;;;;15.39;55.25;101863.00;4979361;28;6780;-75
2022/11/26 11:40:12;;;;;;;;;;;;;;;15.38;55.20;101868.97;4985463;28;8948;-76
2022/11/26 11:42:39;;;;;;;;;;;;;;;15.40;54.80;101867.34;4980587;28;7001;-75
2022/11/26 11:45:30;;;;;;;;;;;;;;;15.50;55.15;101865.25;4983726;28;6784;-75
2022/11/26 11:48:00;;;;;;;;;;;;;;;15.76;55.62;101870.88;4980688;28;7010;-76
2022/11/26 11:50:40;;;;;;;;;;;;;;;16.40;55.09;101858.44;4979955;28;6792;-76
2022/11/26 11:53:43;;;;;;;;;;;;;;;17.24;53.78;101857.03;4982542;28;6958;-76
2022/11/26 11:56:45;;;;;;;;;;;;;;;17.96;51.34;101853.13;4977965;28;7714;-76
2022/11/26 12:00:09;;;;;;;;;;;;;;;18.07;50.41;101851.94;4977590;28;7233;-76
2022/11/26 12:03:12;;;;;;;;;;;;;;;17.69;49.90;101848.59;4980730;28;13519;-76
2022/11/26 12:06:14;;;;;;;;;;;;;;;17.29;49.97;101852.97;4980031;28;7399;-76
2022/11/26 12:09:15;;;;;;;;;;;;;;;16.95;50.65;101857.50;4980545;28;6811;-76
2022/11/26 12:11:58;;;;;;;;;;;;;;;16.62;50.89;101853.44;4978583;28;7255;-76
2022/11/26 12:14:48;;;;;;;;;;;;;;;16.41;51.17;101853.31;4978957;28;6793;-76
2022/11/26 12:17:34;;;;;;;;;;;;;;;16.24;51.22;101845.66;4977063;28;7239;-76
2022/11/26 12:20:39;;;;;;;;;;;;;;;16.15;51.65;101849.50;4987628;28;8525;-76
2022/11/26 12:23:17;;;;;;;;;;;;;;;16.09;51.65;101856.16;4973874;28;7293;-76
2022/11/26 12:25:50;;;;;;;;;;;;;;;16.11;51.52;101856.22;4987694;28;9600;-76
2022/11/26 12:28:24;;;;;;;;;;;;;;;16.14;51.77;101845.13;4984451;28;6808;-76
2022/11/26 12:31:14;;;;;;;;;;;;;;;16.18;51.83;101849.66;4993244;28;6855;-76
2022/11/26 12:34:00;;;;;;;;;;;;;;;16.20;51.97;101843.72;4977289;28;7034;-76
2022/11/26 12:36:48;;;;;;;;;;;;;;;16.22;51.75;101844.72;4961135;28;7010;-76
2022/11/26 12:39:44;;;;;;;;;;;;;;;16.26;52.08;101842.25;4977860;28;7214;-76
2022/11/26 12:42:22;;;;;;;;;;;;;;;16.28;52.13;101851.88;4994847;28;6854;-76
2022/11/26 12:44:51;;;;;;;;;;;;;;;16.31;52.09;101848.53;4979529;28;6816;-76
2022/11/26 12:47:25;;;;;;;;;;;;;;;16.30;51.63;101849.34;4963512;28;9461;-76
2022/11/26 12:50:22;;;;;;;;;;;;;;;16.30;51.69;101844.16;4979338;28;7165;-76
2022/11/26 12:53:16;;;;;;;;;;;;;;;16.28;51.61;101840.63;4989448;28;7216;-75
2022/11/26 12:55:52;;;;;;;;;;;;;;;16.20;51.77;101843.72;4978021;28;6824;-76
2022/11/26 12:58:46;;;;;;;;;;;;;;;16.13;51.56;101853.72;4978324;28;6799;-76
2022/11/26 13:01:12;;;;;;;;;;;;;;;16.07;51.75;101856.91;4959852;28;6992;-76
2022/11/26 13:03:37;;;;;;;;;;;;;;;16.02;51.76;101850.59;4977382;28;7864;-76
2022/11/26 13:06:42;;;;;;;;;;;;;;;15.97;51.53;101852.97;4996327;28;6784;-76
2022/11/26 13:09:52;;;;;;;;;;;;;;;15.91;51.31;101840.63;4977036;28;6980;-76
2022/11/26 13:12:47;;;;;;;;;;;;;;;15.86;51.86;101848.94;4977578;28;6978;-76
2022/11/26 13:15:37;;;;;;;;;;;;;;;15.81;51.70;101846.13;4991173;28;6917;-76
2022/11/26 13:18:17;;;;;;;;;;;;;;;15.79;52.07;101845.16;4977699;28;6812;-76